This is the latest recevied weather packets stored in our database for station/object AD7ZD. If no packets are shown the sender has not sent any weather packets the latest 1 day(s).
| Time | Temp. | Humidity | Pressure | Rain* | Wind** | Luminosity | Snow |
|---|---|---|---|---|---|---|---|
| 1778043829 | 12.22° C | 74% | 1012.1 hPa | 2.29 mm | 4.47 m/s, 130° | 0 W/m² | - |
| 1778043526 | 12.78° C | 69% | 1013.3 hPa | 4.32 mm | 4.92 m/s, 116° | 0 W/m² | - |
| 1778043222 | 12.78° C | 71% | 1013.7 hPa | 1.78 mm | 8.49 m/s, 69° | 0 W/m² | - |
| 1778042919 | 16.67° C | 49% | 1013.5 hPa | 0 mm | 5.81 m/s, 34° | 0 W/m² | - |
| 1778042617 | 16.67° C | 48% | 1012.6 hPa | 0 mm | 5.36 m/s, 63° | 0 W/m² | - |
| 1778042314 | 16.67° C | 47% | 1011.8 hPa | 0 mm | 7.15 m/s, 118° | 0 W/m² | - |
| 1778042011 | 16.67° C | 47% | 1011.8 hPa | 0 mm | 5.81 m/s, 120° | 0 W/m² | - |
| 1778041709 | 16.67° C | 47% | 1011.7 hPa | 0 mm | 7.6 m/s, 116° | 0 W/m² | - |
| 1778041408 | 16.11° C | 48% | 1011.9 hPa | 0 mm | 4.02 m/s, 118° | 0 W/m² | - |
| 1778041107 | 15.56° C | 53% | 1011.6 hPa | 0 mm | 2.24 m/s, 132° | 0 W/m² | - |
| 1778040803 | 15.56° C | 52% | 1011.3 hPa | 0 mm | 4.02 m/s, 129° | 0 W/m² | - |
| 1778040500 | 15.56° C | 54% | 1011.3 hPa | 0 mm | 4.02 m/s, 94° | 0 W/m² | - |
| 1778040198 | 15° C | 56% | 1011.3 hPa | 0 mm | 3.13 m/s, 127° | 0 W/m² | - |
| 1778039894 | 15.56° C | 53% | 1011.1 hPa | 0 mm | 3.58 m/s, 113° | 0 W/m² | - |
| 1778039591 | 15.56° C | 52% | 1010.9 hPa | 0 mm | 4.02 m/s, 136° | 0 W/m² | - |
| 1778039289 | 16.11° C | 49% | 1010.8 hPa | 0 mm | 2.68 m/s, 129° | 0 W/m² | - |
| 1778038986 | 16.11° C | 48% | 1010.8 hPa | 0 mm | 4.47 m/s, 133° | 0 W/m² | - |
| 1778038682 | 16.67° C | 46% | 1010.6 hPa | 0 mm | 2.68 m/s, 145° | 0 W/m² | - |
| 1778038379 | 16.67° C | 46% | 1010.6 hPa | 0 mm | 2.24 m/s, 172° | 0 W/m² | - |
| 1778038076 | 16.67° C | 46% | 1010.6 hPa | 0 mm | 3.13 m/s, 150° | 0 W/m² | - |
| 1778037773 | 16.67° C | 46% | 1010.4 hPa | 0 mm | 2.68 m/s, 155° | 0 W/m² | - |
| 1778037470 | 16.67° C | 47% | 1010.4 hPa | 0 mm | 1.79 m/s, 144° | 0 W/m² | - |
| 1778037167 | 16.67° C | 46% | 1010.2 hPa | 0 mm | 1.34 m/s, 164° | 0 W/m² | - |
| 1778036865 | 16.67° C | 46% | 1010.4 hPa | 0 mm | 3.13 m/s, 167° | 0 W/m² | - |
| 1778036563 | 16.67° C | 47% | 1010.1 hPa | 0 mm | 4.02 m/s, 152° | 0 W/m² | - |
* Rain latest hour (hover to see other rain measurements)
** Current wind speed in m/s (hover to see current wind gust speed)